sensor_id;sensor_type;location;lat;lon;timestamp;temperature;humidity
46494;DHT22;53214;49.314;6.280;2022-08-30T00:01:25;20.30;66.70
46494;DHT22;53214;49.314;6.280;2022-08-30T00:03:53;20.20;66.70
46494;DHT22;53214;49.314;6.280;2022-08-30T00:06:21;20.20;66.80
46494;DHT22;53214;49.314;6.280;2022-08-30T00:08:49;20.20;66.90
46494;DHT22;53214;49.314;6.280;2022-08-30T00:11:20;20.10;67.20
46494;DHT22;53214;49.314;6.280;2022-08-30T00:13:48;20.00;67.20
46494;DHT22;53214;49.314;6.280;2022-08-30T00:16:18;19.90;67.40
46494;DHT22;53214;49.314;6.280;2022-08-30T00:18:46;19.80;67.90
46494;DHT22;53214;49.314;6.280;2022-08-30T00:21:14;19.60;68.40
46494;DHT22;53214;49.314;6.280;2022-08-30T00:23:41;19.50;68.90
46494;DHT22;53214;49.314;6.280;2022-08-30T00:26:08;19.40;69.40
46494;DHT22;53214;49.314;6.280;2022-08-30T00:28:35;19.30;69.60
46494;DHT22;53214;49.314;6.280;2022-08-30T00:31:03;19.30;69.70
46494;DHT22;53214;49.314;6.280;2022-08-30T00:33:31;19.20;69.80
46494;DHT22;53214;49.314;6.280;2022-08-30T00:35:58;19.10;69.90
46494;DHT22;53214;49.314;6.280;2022-08-30T00:38:25;19.10;69.80
46494;DHT22;53214;49.314;6.280;2022-08-30T00:40:52;19.00;69.70
46494;DHT22;53214;49.314;6.280;2022-08-30T00:43:30;19.00;69.80
46494;DHT22;53214;49.314;6.280;2022-08-30T00:46:02;19.00;70.00
46494;DHT22;53214;49.314;6.280;2022-08-30T00:48:31;18.90;69.60
46494;DHT22;53214;49.314;6.280;2022-08-30T00:51:05;18.90;69.40
46494;DHT22;53214;49.314;6.280;2022-08-30T00:53:36;18.90;69.60
46494;DHT22;53214;49.314;6.280;2022-08-30T00:56:04;18.90;69.60
46494;DHT22;53214;49.314;6.280;2022-08-30T00:58:39;18.90;69.60
46494;DHT22;53214;49.314;6.280;2022-08-30T01:01:08;18.90;69.50
46494;DHT22;53214;49.314;6.280;2022-08-30T01:03:37;18.90;69.40
46494;DHT22;53214;49.314;6.280;2022-08-30T01:06:05;18.80;69.60
46494;DHT22;53214;49.314;6.280;2022-08-30T01:08:33;18.80;69.50
46494;DHT22;53214;49.314;6.280;2022-08-30T01:11:02;18.80;69.50
46494;DHT22;53214;49.314;6.280;2022-08-30T01:13:31;18.80;69.50
46494;DHT22;53214;49.314;6.280;2022-08-30T01:15:58;18.80;69.90
46494;DHT22;53214;49.314;6.280;2022-08-30T01:18:29;18.80;69.70
46494;DHT22;53214;49.314;6.280;2022-08-30T01:23:39;18.80;70.10
46494;DHT22;53214;49.314;6.280;2022-08-30T01:26:08;18.70;70.10
46494;DHT22;53214;49.314;6.280;2022-08-30T01:28:38;18.60;70.60
46494;DHT22;53214;49.314;6.280;2022-08-30T01:31:05;18.50;70.60
46494;DHT22;53214;49.314;6.280;2022-08-30T01:33:35;18.40;71.00
46494;DHT22;53214;49.314;6.280;2022-08-30T01:36:06;18.40;71.10
46494;DHT22;53214;49.314;6.280;2022-08-30T01:38:44;18.30;71.80
46494;DHT22;53214;49.314;6.280;2022-08-30T01:41:16;18.30;71.50
46494;DHT22;53214;49.314;6.280;2022-08-30T01:43:44;18.30;71.60
46494;DHT22;53214;49.314;6.280;2022-08-30T01:46:11;18.30;72.00
46494;DHT22;53214;49.314;6.280;2022-08-30T01:48:40;18.20;72.30
46494;DHT22;53214;49.314;6.280;2022-08-30T01:51:16;18.20;72.50
46494;DHT22;53214;49.314;6.280;2022-08-30T01:53:44;18.20;72.90
46494;DHT22;53214;49.314;6.280;2022-08-30T01:56:12;18.10;72.80
46494;DHT22;53214;49.314;6.280;2022-08-30T01:58:40;18.10;73.10
46494;DHT22;53214;49.314;6.280;2022-08-30T02:01:09;18.10;73.20
46494;DHT22;53214;49.314;6.280;2022-08-30T02:03:40;18.10;73.30
46494;DHT22;53214;49.314;6.280;2022-08-30T02:06:10;18.10;73.00
46494;DHT22;53214;49.314;6.280;2022-08-30T02:08:37;18.00;72.90
46494;DHT22;53214;49.314;6.280;2022-08-30T02:11:06;18.10;72.50
46494;DHT22;53214;49.314;6.280;2022-08-30T02:13:33;18.10;72.40
46494;DHT22;53214;49.314;6.280;2022-08-30T02:16:00;18.00;72.80
46494;DHT22;53214;49.314;6.280;2022-08-30T02:18:27;17.90;73.20
46494;DHT22;53214;49.314;6.280;2022-08-30T02:20:54;17.90;73.30
46494;DHT22;53214;49.314;6.280;2022-08-30T02:23:21;17.80;73.10
46494;DHT22;53214;49.314;6.280;2022-08-30T02:25:48;17.60;73.70
46494;DHT22;53214;49.314;6.280;2022-08-30T02:28:15;17.50;74.50
46494;DHT22;53214;49.314;6.280;2022-08-30T02:30:44;17.40;75.10
46494;DHT22;53214;49.314;6.280;2022-08-30T02:33:12;17.30;75.30
46494;DHT22;53214;49.314;6.280;2022-08-30T02:35:40;17.30;75.30
46494;DHT22;53214;49.314;6.280;2022-08-30T02:38:07;17.30;75.30
46494;DHT22;53214;49.314;6.280;2022-08-30T02:40:34;17.30;75.20
46494;DHT22;53214;49.314;6.280;2022-08-30T02:43:04;17.30;75.00
46494;DHT22;53214;49.314;6.280;2022-08-30T02:45:32;17.30;74.70
46494;DHT22;53214;49.314;6.280;2022-08-30T02:47:59;17.30;74.50
46494;DHT22;53214;49.314;6.280;2022-08-30T02:50:26;17.30;74.30
46494;DHT22;53214;49.314;6.280;2022-08-30T02:52:53;17.30;74.20
46494;DHT22;53214;49.314;6.280;2022-08-30T02:55:21;17.30;74.50
46494;DHT22;53214;49.314;6.280;2022-08-30T02:57:48;17.30;74.70
46494;DHT22;53214;49.314;6.280;2022-08-30T03:00:17;17.30;75.40
46494;DHT22;53214;49.314;6.280;2022-08-30T03:02:45;17.20;76.00
46494;DHT22;53214;49.314;6.280;2022-08-30T03:05:13;17.20;75.90
46494;DHT22;53214;49.314;6.280;2022-08-30T03:07:41;17.20;75.80
46494;DHT22;53214;49.314;6.280;2022-08-30T03:10:10;17.20;76.00
46494;DHT22;53214;49.314;6.280;2022-08-30T03:12:39;17.20;76.00
46494;DHT22;53214;49.314;6.280;2022-08-30T03:15:09;17.20;76.30
46494;DHT22;53214;49.314;6.280;2022-08-30T03:17:36;17.00;76.30
46494;DHT22;53214;49.314;6.280;2022-08-30T03:20:04;16.90;76.40
46494;DHT22;53214;49.314;6.280;2022-08-30T03:22:31;16.90;76.80
46494;DHT22;53214;49.314;6.280;2022-08-30T03:24:58;16.80;77.00
46494;DHT22;53214;49.314;6.280;2022-08-30T03:27:28;16.80;77.40
46494;DHT22;53214;49.314;6.280;2022-08-30T03:29:55;16.90;77.40
46494;DHT22;53214;49.314;6.280;2022-08-30T03:32:22;16.80;77.50
46494;DHT22;53214;49.314;6.280;2022-08-30T03:34:49;16.80;77.80
46494;DHT22;53214;49.314;6.280;2022-08-30T03:37:16;16.70;78.10
46494;DHT22;53214;49.314;6.280;2022-08-30T03:39:43;16.70;78.10
46494;DHT22;53214;49.314;6.280;2022-08-30T03:42:11;16.60;78.10
46494;DHT22;53214;49.314;6.280;2022-08-30T03:44:38;16.60;78.20
46494;DHT22;53214;49.314;6.280;2022-08-30T03:47:06;16.50;78.30
46494;DHT22;53214;49.314;6.280;2022-08-30T03:49:34;16.60;78.80
46494;DHT22;53214;49.314;6.280;2022-08-30T03:52:01;16.60;79.10
46494;DHT22;53214;49.314;6.280;2022-08-30T03:54:28;16.60;79.40
46494;DHT22;53214;49.314;6.280;2022-08-30T03:56:55;16.60;80.10
46494;DHT22;53214;49.314;6.280;2022-08-30T03:59:23;16.50;79.70
46494;DHT22;53214;49.314;6.280;2022-08-30T04:01:50;16.50;79.90
46494;DHT22;53214;49.314;6.280;2022-08-30T04:04:17;16.50;79.90
46494;DHT22;53214;49.314;6.280;2022-08-30T04:06:47;16.50;79.90
46494;DHT22;53214;49.314;6.280;2022-08-30T04:09:14;16.40;79.80
46494;DHT22;53214;49.314;6.280;2022-08-30T04:11:41;16.40;80.00
46494;DHT22;53214;49.314;6.280;2022-08-30T04:14:08;16.30;79.80
46494;DHT22;53214;49.314;6.280;2022-08-30T04:16:35;16.40;79.80
46494;DHT22;53214;49.314;6.280;2022-08-30T04:19:03;16.40;79.70
46494;DHT22;53214;49.314;6.280;2022-08-30T04:21:30;16.40;79.50
46494;DHT22;53214;49.314;6.280;2022-08-30T04:23:57;16.40;79.50
46494;DHT22;53214;49.314;6.280;2022-08-30T04:26:25;16.30;79.30
46494;DHT22;53214;49.314;6.280;2022-08-30T04:28:55;16.30;79.30
46494;DHT22;53214;49.314;6.280;2022-08-30T04:31:22;16.30;79.10
46494;DHT22;53214;49.314;6.280;2022-08-30T04:33:49;16.30;79.10
46494;DHT22;53214;49.314;6.280;2022-08-30T04:36:16;16.30;79.00
46494;DHT22;53214;49.314;6.280;2022-08-30T04:38:43;16.40;78.80
46494;DHT22;53214;49.314;6.280;2022-08-30T04:41:13;16.40;78.80
46494;DHT22;53214;49.314;6.280;2022-08-30T04:43:44;16.40;79.00
46494;DHT22;53214;49.314;6.280;2022-08-30T04:46:11;16.40;79.00
46494;DHT22;53214;49.314;6.280;2022-08-30T04:48:41;16.40;79.20
46494;DHT22;53214;49.314;6.280;2022-08-30T04:51:10;16.30;79.40
46494;DHT22;53214;49.314;6.280;2022-08-30T04:53:40;16.30;79.50
46494;DHT22;53214;49.314;6.280;2022-08-30T04:56:09;16.30;79.20
46494;DHT22;53214;49.314;6.280;2022-08-30T04:58:37;16.40;79.00
46494;DHT22;53214;49.314;6.280;2022-08-30T05:01:04;16.50;78.90
46494;DHT22;53214;49.314;6.280;2022-08-30T05:03:35;16.50;79.00
46494;DHT22;53214;49.314;6.280;2022-08-30T05:06:02;16.50;78.80
46494;DHT22;53214;49.314;6.280;2022-08-30T05:08:29;16.60;78.80
46494;DHT22;53214;49.314;6.280;2022-08-30T05:10:56;16.60;78.60
46494;DHT22;53214;49.314;6.280;2022-08-30T05:13:23;16.70;78.80
46494;DHT22;53214;49.314;6.280;2022-08-30T05:16:02;16.70;78.90
46494;DHT22;53214;49.314;6.280;2022-08-30T05:18:30;16.60;79.10
46494;DHT22;53214;49.314;6.280;2022-08-30T05:21:14;16.50;79.20
46494;DHT22;53214;49.314;6.280;2022-08-30T05:23:43;16.60;79.30
46494;DHT22;53214;49.314;6.280;2022-08-30T05:26:17;16.70;79.10
46494;DHT22;53214;49.314;6.280;2022-08-30T05:28:45;16.80;79.10
46494;DHT22;53214;49.314;6.280;2022-08-30T05:31:23;16.80;79.00
46494;DHT22;53214;49.314;6.280;2022-08-30T05:33:52;16.90;78.90
46494;DHT22;53214;49.314;6.280;2022-08-30T05:36:22;16.90;78.90
46494;DHT22;53214;49.314;6.280;2022-08-30T05:38:49;17.00;79.10
46494;DHT22;53214;49.314;6.280;2022-08-30T05:41:21;17.00;79.10
46494;DHT22;53214;49.314;6.280;2022-08-30T05:43:53;17.00;78.90
46494;DHT22;53214;49.314;6.280;2022-08-30T05:46:20;17.10;78.80
46494;DHT22;53214;49.314;6.280;2022-08-30T05:48:48;17.20;78.50
46494;DHT22;53214;49.314;6.280;2022-08-30T05:51:21;17.30;78.80
46494;DHT22;53214;49.314;6.280;2022-08-30T05:53:49;17.40;78.70
46494;DHT22;53214;49.314;6.280;2022-08-30T05:56:20;17.50;78.90
46494;DHT22;53214;49.314;6.280;2022-08-30T05:58:50;17.60;78.70
46494;DHT22;53214;49.314;6.280;2022-08-30T06:01:23;17.60;78.40
46494;DHT22;53214;49.314;6.280;2022-08-30T06:03:52;17.80;78.20
46494;DHT22;53214;49.314;6.280;2022-08-30T06:06:19;17.80;78.00
46494;DHT22;53214;49.314;6.280;2022-08-30T06:08:46;17.90;78.00
46494;DHT22;53214;49.314;6.280;2022-08-30T06:11:16;17.90;78.10
46494;DHT22;53214;49.314;6.280;2022-08-30T06:13:43;17.90;78.20
46494;DHT22;53214;49.314;6.280;2022-08-30T06:16:11;17.90;78.20
46494;DHT22;53214;49.314;6.280;2022-08-30T06:18:39;18.00;78.30
46494;DHT22;53214;49.314;6.280;2022-08-30T06:21:06;18.10;78.20
46494;DHT22;53214;49.314;6.280;2022-08-30T06:23:33;18.20;78.10
46494;DHT22;53214;49.314;6.280;2022-08-30T06:26:06;18.20;77.80
46494;DHT22;53214;49.314;6.280;2022-08-30T06:28:33;18.30;77.80
46494;DHT22;53214;49.314;6.280;2022-08-30T06:31:04;18.40;78.00
46494;DHT22;53214;49.314;6.280;2022-08-30T06:33:31;18.40;77.90
46494;DHT22;53214;49.314;6.280;2022-08-30T06:36:05;18.40;77.70
46494;DHT22;53214;49.314;6.280;2022-08-30T06:38:32;18.50;77.40
46494;DHT22;53214;49.314;6.280;2022-08-30T06:40:59;18.70;77.20
46494;DHT22;53214;49.314;6.280;2022-08-30T06:43:26;18.70;76.80
46494;DHT22;53214;49.314;6.280;2022-08-30T06:45:53;18.90;76.70
46494;DHT22;53214;49.314;6.280;2022-08-30T06:48:21;19.10;76.20
46494;DHT22;53214;49.314;6.280;2022-08-30T06:50:53;19.20;75.70
46494;DHT22;53214;49.314;6.280;2022-08-30T06:53:21;19.30;75.40
46494;DHT22;53214;49.314;6.280;2022-08-30T06:55:56;19.50;74.70
46494;DHT22;53214;49.314;6.280;2022-08-30T06:58:24;19.80;73.50
46494;DHT22;53214;49.314;6.280;2022-08-30T07:00:51;20.00;73.00
46494;DHT22;53214;49.314;6.280;2022-08-30T07:03:18;20.20;72.40
46494;DHT22;53214;49.314;6.280;2022-08-30T07:05:49;20.60;71.60
46494;DHT22;53214;49.314;6.280;2022-08-30T07:08:16;20.90;70.70
46494;DHT22;53214;49.314;6.280;2022-08-30T07:10:43;21.10;69.90
46494;DHT22;53214;49.314;6.280;2022-08-30T07:13:11;21.50;68.80
46494;DHT22;53214;49.314;6.280;2022-08-30T07:15:41;22.00;68.00
46494;DHT22;53214;49.314;6.280;2022-08-30T07:18:10;22.40;67.10
46494;DHT22;53214;49.314;6.280;2022-08-30T07:20:56;22.60;66.30
46494;DHT22;53214;49.314;6.280;2022-08-30T07:23:23;22.50;66.00
46494;DHT22;53214;49.314;6.280;2022-08-30T07:25:50;22.50;66.00
46494;DHT22;53214;49.314;6.280;2022-08-30T07:28:17;22.60;66.00
46494;DHT22;53214;49.314;6.280;2022-08-30T07:30:44;23.00;64.50
46494;DHT22;53214;49.314;6.280;2022-08-30T07:33:11;23.30;63.90
46494;DHT22;53214;49.314;6.280;2022-08-30T07:35:38;23.60;62.90
46494;DHT22;53214;49.314;6.280;2022-08-30T07:38:05;24.00;62.10
46494;DHT22;53214;49.314;6.280;2022-08-30T07:40:32;24.40;61.10
46494;DHT22;53214;49.314;6.280;2022-08-30T07:42:59;24.90;60.70
46494;DHT22;53214;49.314;6.280;2022-08-30T07:45:27;25.40;59.90
46494;DHT22;53214;49.314;6.280;2022-08-30T07:47:54;25.70;59.00
46494;DHT22;53214;49.314;6.280;2022-08-30T07:50:23;26.00;57.80
46494;DHT22;53214;49.314;6.280;2022-08-30T07:52:50;26.40;57.30
46494;DHT22;53214;49.314;6.280;2022-08-30T07:55:17;26.70;57.00
46494;DHT22;53214;49.314;6.280;2022-08-30T07:57:44;26.70;56.70
46494;DHT22;53214;49.314;6.280;2022-08-30T08:00:11;26.90;56.70
46494;DHT22;53214;49.314;6.280;2022-08-30T08:02:38;26.80;56.60
46494;DHT22;53214;49.314;6.280;2022-08-30T08:05:07;26.90;56.50
46494;DHT22;53214;49.314;6.280;2022-08-30T08:07:35;27.00;56.30
46494;DHT22;53214;49.314;6.280;2022-08-30T08:10:02;27.10;56.20
46494;DHT22;53214;49.314;6.280;2022-08-30T08:12:29;27.10;55.20
46494;DHT22;53214;49.314;6.280;2022-08-30T08:14:56;27.00;55.40
46494;DHT22;53214;49.314;6.280;2022-08-30T08:17:23;27.00;55.70
46494;DHT22;53214;49.314;6.280;2022-08-30T08:19:50;27.00;55.90
46494;DHT22;53214;49.314;6.280;2022-08-30T08:22:17;27.00;56.00
46494;DHT22;53214;49.314;6.280;2022-08-30T08:24:48;27.30;56.00
46494;DHT22;53214;49.314;6.280;2022-08-30T08:27:15;27.30;55.10
46494;DHT22;53214;49.314;6.280;2022-08-30T08:29:42;27.20;55.40
46494;DHT22;53214;49.314;6.280;2022-08-30T08:32:09;27.30;55.50
46494;DHT22;53214;49.314;6.280;2022-08-30T08:34:36;27.30;55.70
46494;DHT22;53214;49.314;6.280;2022-08-30T08:37:03;27.30;55.80
46494;DHT22;53214;49.314;6.280;2022-08-30T08:39:30;27.20;55.70
46494;DHT22;53214;49.314;6.280;2022-08-30T08:42:17;27.20;55.60
46494;DHT22;53214;49.314;6.280;2022-08-30T08:50:13;27.00;55.10
46494;DHT22;53214;49.314;6.280;2022-08-30T08:53:21;27.00;55.20
46494;DHT22;53214;49.314;6.280;2022-08-30T08:56:14;27.00;55.30
46494;DHT22;53214;49.314;6.280;2022-08-30T08:58:50;27.70;55.40
46494;DHT22;53214;49.314;6.280;2022-08-30T09:01:20;28.80;54.20
46494;DHT22;53214;49.314;6.280;2022-08-30T09:03:47;29.60;52.80
46494;DHT22;53214;49.314;6.280;2022-08-30T09:09:11;31.20;50.00
46494;DHT22;53214;49.314;6.280;2022-08-30T09:11:39;31.90;49.70
46494;DHT22;53214;49.314;6.280;2022-08-30T09:14:16;32.50;49.30
46494;DHT22;53214;49.314;6.280;2022-08-30T09:17:05;33.30;47.70
46494;DHT22;53214;49.314;6.280;2022-08-30T09:22:32;33.70;46.80
46494;DHT22;53214;49.314;6.280;2022-08-30T09:25:17;33.80;46.20
46494;DHT22;53214;49.314;6.280;2022-08-30T09:27:48;34.00;46.90
46494;DHT22;53214;49.314;6.280;2022-08-30T09:30:20;35.00;45.40
46494;DHT22;53214;49.314;6.280;2022-08-30T09:32:53;35.80;44.80
46494;DHT22;53214;49.314;6.280;2022-08-30T09:37:58;37.20;43.70
46494;DHT22;53214;49.314;6.280;2022-08-30T09:40:39;37.90;42.60
46494;DHT22;53214;49.314;6.280;2022-08-30T09:43:09;38.30;42.10
46494;DHT22;53214;49.314;6.280;2022-08-30T09:46:05;38.60;42.10
46494;DHT22;53214;49.314;6.280;2022-08-30T09:48:40;38.70;41.90
46494;DHT22;53214;49.314;6.280;2022-08-30T10:05:01;39.30;41.20
46494;DHT22;53214;49.314;6.280;2022-08-30T10:07:33;39.30;41.40
46494;DHT22;53214;49.314;6.280;2022-08-30T10:13:09;38.30;41.40
46494;DHT22;53214;49.314;6.280;2022-08-30T10:15:48;38.40;41.70
46494;DHT22;53214;49.314;6.280;2022-08-30T10:23:25;41.40;40.00
46494;DHT22;53214;49.314;6.280;2022-08-30T10:25:56;41.30;39.60
46494;DHT22;53214;49.314;6.280;2022-08-30T10:28:41;40.10;39.30
46494;DHT22;53214;49.314;6.280;2022-08-30T10:31:45;38.60;40.60
46494;DHT22;53214;49.314;6.280;2022-08-30T10:34:17;38.20;40.90
46494;DHT22;53214;49.314;6.280;2022-08-30T10:36:59;37.30;41.50
46494;DHT22;53214;49.314;6.280;2022-08-30T10:39:30;36.60;41.90
46494;DHT22;53214;49.314;6.280;2022-08-30T10:42:07;36.50;42.40
46494;DHT22;53214;49.314;6.280;2022-08-30T10:44:38;36.70;42.10
46494;DHT22;53214;49.314;6.280;2022-08-30T10:47:30;36.30;42.40
46494;DHT22;53214;49.314;6.280;2022-08-30T10:50:33;36.00;42.40
46494;DHT22;53214;49.314;6.280;2022-08-30T10:53:14;35.30;42.90
46494;DHT22;53214;49.314;6.280;2022-08-30T10:55:52;35.00;43.50
46494;DHT22;53214;49.314;6.280;2022-08-30T10:58:20;34.50;44.10
46494;DHT22;53214;49.314;6.280;2022-08-30T11:09:26;32.70;45.40
46494;DHT22;53214;49.314;6.280;2022-08-30T11:12:21;32.10;46.20
46494;DHT22;53214;49.314;6.280;2022-08-30T11:14:52;31.90;46.20
46494;DHT22;53214;49.314;6.280;2022-08-30T11:17:35;31.80;46.20
46494;DHT22;53214;49.314;6.280;2022-08-30T11:20:04;31.90;46.50
46494;DHT22;53214;49.314;6.280;2022-08-30T11:23:25;31.70;46.40
46494;DHT22;53214;49.314;6.280;2022-08-30T11:33:52;31.30;47.40
46494;DHT22;53214;49.314;6.280;2022-08-30T11:39:08;31.70;47.20
46494;DHT22;53214;49.314;6.280;2022-08-30T11:41:44;31.70;47.10
46494;DHT22;53214;49.314;6.280;2022-08-30T11:46:48;31.70;46.80
46494;DHT22;53214;49.314;6.280;2022-08-30T12:12:11;33.20;45.10
46494;DHT22;53214;49.314;6.280;2022-08-30T12:14:53;33.80;44.40
46494;DHT22;53214;49.314;6.280;2022-08-30T12:34:26;31.90;45.70
46494;DHT22;53214;49.314;6.280;2022-08-30T12:37:06;32.20;45.60
46494;DHT22;53214;49.314;6.280;2022-08-30T12:39:37;32.80;45.10
46494;DHT22;53214;49.314;6.280;2022-08-30T12:42:25;32.90;45.10
46494;DHT22;53214;49.314;6.280;2022-08-30T12:44:56;32.80;44.70
46494;DHT22;53214;49.314;6.280;2022-08-30T12:47:33;32.30;44.90
46494;DHT22;53214;49.314;6.280;2022-08-30T12:50:04;32.00;45.30
46494;DHT22;53214;49.314;6.280;2022-08-30T12:52:43;31.80;45.70
46494;DHT22;53214;49.314;6.280;2022-08-30T12:55:19;31.80;45.50
46494;DHT22;53214;49.314;6.280;2022-08-30T12:58:04;31.60;45.40
46494;DHT22;53214;49.314;6.280;2022-08-30T13:00:38;31.60;45.40
46494;DHT22;53214;49.314;6.280;2022-08-30T13:03:27;31.60;45.70
46494;DHT22;53214;49.314;6.280;2022-08-30T13:05:56;31.60;45.80
46494;DHT22;53214;49.314;6.280;2022-08-30T13:08:30;31.50;45.80
46494;DHT22;53214;49.314;6.280;2022-08-30T13:13:35;31.20;46.00
46494;DHT22;53214;49.314;6.280;2022-08-30T13:16:36;31.00;46.50
46494;DHT22;53214;49.314;6.280;2022-08-30T13:19:32;30.70;47.00
46494;DHT22;53214;49.314;6.280;2022-08-30T13:22:02;31.00;46.50
46494;DHT22;53214;49.314;6.280;2022-08-30T13:24:29;31.20;46.40
46494;DHT22;53214;49.314;6.280;2022-08-30T13:27:04;31.30;46.20
46494;DHT22;53214;49.314;6.280;2022-08-30T13:29:37;31.50;46.00
46494;DHT22;53214;49.314;6.280;2022-08-30T13:32:04;31.60;45.50
46494;DHT22;53214;49.314;6.280;2022-08-30T13:34:31;31.90;45.20
46494;DHT22;53214;49.314;6.280;2022-08-30T13:37:01;32.40;44.70
46494;DHT22;53214;49.314;6.280;2022-08-30T13:39:30;33.40;43.60
46494;DHT22;53214;49.314;6.280;2022-08-30T13:41:57;34.60;42.60
46494;DHT22;53214;49.314;6.280;2022-08-30T13:44:44;35.20;41.80
46494;DHT22;53214;49.314;6.280;2022-08-30T13:47:14;35.50;41.30
46494;DHT22;53214;49.314;6.280;2022-08-30T13:49:58;35.30;41.00
46494;DHT22;53214;49.314;6.280;2022-08-30T13:52:26;35.70;40.80
46494;DHT22;53214;49.314;6.280;2022-08-30T13:54:55;35.80;40.70
46494;DHT22;53214;49.314;6.280;2022-08-30T13:57:25;35.40;40.50
46494;DHT22;53214;49.314;6.280;2022-08-30T14:00:16;35.00;40.70
46494;DHT22;53214;49.314;6.280;2022-08-30T14:02:46;35.00;40.80
46494;DHT22;53214;49.314;6.280;2022-08-30T14:05:33;35.10;40.50
46494;DHT22;53214;49.314;6.280;2022-08-30T14:08:23;35.10;40.60
46494;DHT22;53214;49.314;6.280;2022-08-30T14:11:11;35.10;40.80
46494;DHT22;53214;49.314;6.280;2022-08-30T14:13:39;35.90;40.10
46494;DHT22;53214;49.314;6.280;2022-08-30T14:16:29;35.90;39.90
46494;DHT22;53214;49.314;6.280;2022-08-30T14:18:58;35.80;39.60
46494;DHT22;53214;49.314;6.280;2022-08-30T14:21:26;34.70;39.30
46494;DHT22;53214;49.314;6.280;2022-08-30T14:23:54;33.60;40.90
46494;DHT22;53214;49.314;6.280;2022-08-30T14:26:28;33.10;41.10
46494;DHT22;53214;49.314;6.280;2022-08-30T14:29:03;32.80;41.60
46494;DHT22;53214;49.314;6.280;2022-08-30T14:31:35;32.50;42.00
46494;DHT22;53214;49.314;6.280;2022-08-30T14:34:04;32.30;41.40
46494;DHT22;53214;49.314;6.280;2022-08-30T14:36:33;32.20;41.90
46494;DHT22;53214;49.314;6.280;2022-08-30T14:39:02;31.90;41.50
46494;DHT22;53214;49.314;6.280;2022-08-30T14:41:39;31.70;41.60
46494;DHT22;53214;49.314;6.280;2022-08-30T14:44:10;31.50;42.00
46494;DHT22;53214;49.314;6.280;2022-08-30T14:46:37;31.20;42.40
46494;DHT22;53214;49.314;6.280;2022-08-30T14:49:06;31.00;42.80
46494;DHT22;53214;49.314;6.280;2022-08-30T14:51:35;31.10;42.90
46494;DHT22;53214;49.314;6.280;2022-08-30T14:54:03;31.10;43.30
46494;DHT22;53214;49.314;6.280;2022-08-30T14:56:30;31.10;43.30
46494;DHT22;53214;49.314;6.280;2022-08-30T14:58:57;31.10;43.20
46494;DHT22;53214;49.314;6.280;2022-08-30T15:01:27;31.00;43.10
46494;DHT22;53214;49.314;6.280;2022-08-30T15:03:55;30.90;43.10
46494;DHT22;53214;49.314;6.280;2022-08-30T15:06:24;30.80;43.30
46494;DHT22;53214;49.314;6.280;2022-08-30T15:08:53;30.90;43.30
46494;DHT22;53214;49.314;6.280;2022-08-30T15:11:22;31.00;43.40
46494;DHT22;53214;49.314;6.280;2022-08-30T15:13:51;31.10;43.50
46494;DHT22;53214;49.314;6.280;2022-08-30T15:16:26;31.20;43.00
46494;DHT22;53214;49.314;6.280;2022-08-30T15:18:53;31.20;42.90
46494;DHT22;53214;49.314;6.280;2022-08-30T15:21:22;31.10;42.80
46494;DHT22;53214;49.314;6.280;2022-08-30T15:23:51;31.20;43.60
46494;DHT22;53214;49.314;6.280;2022-08-30T15:26:18;31.20;42.80
46494;DHT22;53214;49.314;6.280;2022-08-30T15:28:45;31.10;42.90
46494;DHT22;53214;49.314;6.280;2022-08-30T15:31:12;31.20;43.00
46494;DHT22;53214;49.314;6.280;2022-08-30T15:33:40;31.20;42.90
46494;DHT22;53214;49.314;6.280;2022-08-30T15:36:11;31.10;43.20
46494;DHT22;53214;49.314;6.280;2022-08-30T15:38:39;31.00;43.40
46494;DHT22;53214;49.314;6.280;2022-08-30T15:41:10;30.90;43.40
46494;DHT22;53214;49.314;6.280;2022-08-30T15:43:39;30.80;43.30
46494;DHT22;53214;49.314;6.280;2022-08-30T15:46:22;30.70;43.40
46494;DHT22;53214;49.314;6.280;2022-08-30T15:48:58;30.70;43.70
46494;DHT22;53214;49.314;6.280;2022-08-30T15:51:25;30.60;43.60
46494;DHT22;53214;49.314;6.280;2022-08-30T15:53:53;30.60;43.70
46494;DHT22;53214;49.314;6.280;2022-08-30T15:56:20;30.60;44.00
46494;DHT22;53214;49.314;6.280;2022-08-30T15:58:47;30.60;44.10
46494;DHT22;53214;49.314;6.280;2022-08-30T16:01:19;30.40;44.10
46494;DHT22;53214;49.314;6.280;2022-08-30T16:03:56;30.40;44.10
46494;DHT22;53214;49.314;6.280;2022-08-30T16:06:30;30.30;44.00
46494;DHT22;53214;49.314;6.280;2022-08-30T16:08:57;30.20;44.80
46494;DHT22;53214;49.314;6.280;2022-08-30T16:11:25;30.10;44.20
46494;DHT22;53214;49.314;6.280;2022-08-30T16:13:54;30.00;44.10
46494;DHT22;53214;49.314;6.280;2022-08-30T16:16:22;29.90;44.40
46494;DHT22;53214;49.314;6.280;2022-08-30T16:18:51;29.80;44.30
46494;DHT22;53214;49.314;6.280;2022-08-30T16:21:25;29.80;44.70
46494;DHT22;53214;49.314;6.280;2022-08-30T16:23:58;29.60;44.90
46494;DHT22;53214;49.314;6.280;2022-08-30T16:26:27;29.50;45.10
46494;DHT22;53214;49.314;6.280;2022-08-30T16:28:55;29.50;45.10
46494;DHT22;53214;49.314;6.280;2022-08-30T16:31:23;29.40;45.30
46494;DHT22;53214;49.314;6.280;2022-08-30T16:33:53;29.30;45.50
46494;DHT22;53214;49.314;6.280;2022-08-30T16:36:21;29.20;45.60
46494;DHT22;53214;49.314;6.280;2022-08-30T16:38:49;29.10;45.80
46494;DHT22;53214;49.314;6.280;2022-08-30T16:41:21;29.20;46.10
46494;DHT22;53214;49.314;6.280;2022-08-30T16:43:49;29.10;46.20
46494;DHT22;53214;49.314;6.280;2022-08-30T16:46:20;29.10;46.50
46494;DHT22;53214;49.314;6.280;2022-08-30T16:48:52;29.00;46.50
46494;DHT22;53214;49.314;6.280;2022-08-30T16:51:21;28.90;46.80
46494;DHT22;53214;49.314;6.280;2022-08-30T16:53:59;28.80;47.20
46494;DHT22;53214;49.314;6.280;2022-08-30T16:56:28;28.80;47.60
46494;DHT22;53214;49.314;6.280;2022-08-30T16:58:55;28.70;47.80
46494;DHT22;53214;49.314;6.280;2022-08-30T17:01:43;28.60;48.00
46494;DHT22;53214;49.314;6.280;2022-08-30T17:04:11;28.60;48.40
46494;DHT22;53214;49.314;6.280;2022-08-30T17:06:41;28.50;48.80
46494;DHT22;53214;49.314;6.280;2022-08-30T17:09:08;28.40;48.90
46494;DHT22;53214;49.314;6.280;2022-08-30T17:11:38;28.40;49.20
46494;DHT22;53214;49.314;6.280;2022-08-30T17:14:06;28.30;49.70
46494;DHT22;53214;49.314;6.280;2022-08-30T17:16:34;28.20;49.60
46494;DHT22;53214;49.314;6.280;2022-08-30T17:19:03;28.10;49.30
46494;DHT22;53214;49.314;6.280;2022-08-30T17:21:31;28.00;49.50
46494;DHT22;53214;49.314;6.280;2022-08-30T17:23:58;28.00;49.40
46494;DHT22;53214;49.314;6.280;2022-08-30T17:26:31;27.90;49.30
46494;DHT22;53214;49.314;6.280;2022-08-30T17:28:58;27.90;49.40
46494;DHT22;53214;49.314;6.280;2022-08-30T17:31:26;27.80;49.80
46494;DHT22;53214;49.314;6.280;2022-08-30T17:33:58;27.70;49.70
46494;DHT22;53214;49.314;6.280;2022-08-30T17:36:31;27.70;50.40